sensor_id;sensor_type;location;lat;lon;timestamp;pressure;altitude;pressure_sealevel;temperature;humidity
20105;BME280;10212;42.714;23.310;2023-01-29T00:09:16;95300.47;;;-1.72;100.00
20105;BME280;10212;42.714;23.310;2023-01-29T00:19:16;95303.72;;;-1.81;100.00
20105;BME280;10212;42.714;23.310;2023-01-29T00:29:18;95306.84;;;-1.77;100.00
20105;BME280;10212;42.714;23.310;2023-01-29T00:39:18;95308.34;;;-1.75;100.00
20105;BME280;10212;42.714;23.310;2023-01-29T00:49:24;95312.88;;;-1.78;100.00
20105;BME280;10212;42.714;23.310;2023-01-29T00:59:25;95317.78;;;-1.75;100.00
20105;BME280;10212;42.714;23.310;2023-01-29T01:09:25;95309.03;;;-1.73;100.00
20105;BME280;10212;42.714;23.310;2023-01-29T01:19:49;95301.63;;;-1.76;99.98
20105;BME280;10212;42.714;23.310;2023-01-29T01:29:49;95302.50;;;-1.65;100.00
20105;BME280;10212;42.714;23.310;2023-01-29T01:39:50;95306.25;;;-1.70;100.00
20105;BME280;10212;42.714;23.310;2023-01-29T01:49:51;95301.88;;;-1.79;100.00
20105;BME280;10212;42.714;23.310;2023-01-29T02:00:06;95313.25;;;-1.72;100.00
20105;BME280;10212;42.714;23.310;2023-01-29T02:10:14;95307.44;;;-1.85;100.00
20105;BME280;10212;42.714;23.310;2023-01-29T02:20:20;95318.81;;;-1.78;100.00
20105;BME280;10212;42.714;23.310;2023-01-29T02:30:33;95308.16;;;-1.83;100.00
20105;BME280;10212;42.714;23.310;2023-01-29T02:40:54;95324.38;;;-1.73;100.00
20105;BME280;10212;42.714;23.310;2023-01-29T02:51:05;95333.06;;;-1.64;100.00
20105;BME280;10212;42.714;23.310;2023-01-29T03:01:19;95332.63;;;-1.69;100.00
20105;BME280;10212;42.714;23.310;2023-01-29T03:11:22;95336.91;;;-1.70;100.00
20105;BME280;10212;42.714;23.310;2023-01-29T03:21:36;95339.94;;;-1.64;100.00
20105;BME280;10212;42.714;23.310;2023-01-29T03:31:54;95340.84;;;-1.54;100.00
20105;BME280;10212;42.714;23.310;2023-01-29T03:52:46;95335.19;;;-1.69;100.00
20105;BME280;10212;42.714;23.310;2023-01-29T04:13:01;95355.53;;;-1.67;100.00
20105;BME280;10212;42.714;23.310;2023-01-29T04:23:06;95354.94;;;-1.71;100.00
20105;BME280;10212;42.714;23.310;2023-01-29T04:33:34;95361.59;;;-1.80;100.00
20105;BME280;10212;42.714;23.310;2023-01-29T05:04:06;95360.44;;;-1.87;100.00
20105;BME280;10212;42.714;23.310;2023-01-29T05:14:12;95370.31;;;-1.83;100.00
20105;BME280;10212;42.714;23.310;2023-01-29T05:24:19;95381.13;;;-1.79;100.00
20105;BME280;10212;42.714;23.310;2023-01-29T05:34:20;95385.75;;;-1.73;100.00
20105;BME280;10212;42.714;23.310;2023-01-29T05:44:20;95390.16;;;-1.75;100.00
20105;BME280;10212;42.714;23.310;2023-01-29T05:54:21;95398.91;;;-1.77;100.00
20105;BME280;10212;42.714;23.310;2023-01-29T06:04:21;95402.94;;;-1.75;100.00
20105;BME280;10212;42.714;23.310;2023-01-29T06:14:22;95422.94;;;-1.68;100.00
20105;BME280;10212;42.714;23.310;2023-01-29T06:24:23;95432.44;;;-1.59;100.00
20105;BME280;10212;42.714;23.310;2023-01-29T06:34:26;95434.34;;;-1.61;100.00
20105;BME280;10212;42.714;23.310;2023-01-29T06:44:26;95444.53;;;-1.50;100.00
20105;BME280;10212;42.714;23.310;2023-01-29T06:54:26;95459.97;;;-1.28;100.00
20105;BME280;10212;42.714;23.310;2023-01-29T07:04:28;95463.31;;;-1.16;100.00
20105;BME280;10212;42.714;23.310;2023-01-29T07:14:29;95474.72;;;-1.20;100.00
20105;BME280;10212;42.714;23.310;2023-01-29T07:24:31;95483.38;;;-1.33;100.00
20105;BME280;10212;42.714;23.310;2023-01-29T07:34:31;95484.06;;;-1.31;100.00
20105;BME280;10212;42.714;23.310;2023-01-29T07:44:43;95479.50;;;-1.27;100.00
20105;BME280;10212;42.714;23.310;2023-01-29T07:54:45;95497.72;;;-1.09;100.00
20105;BME280;10212;42.714;23.310;2023-01-29T08:04:45;95501.13;;;-1.20;100.00
20105;BME280;10212;42.714;23.310;2023-01-29T08:14:46;95506.34;;;-1.10;99.89
20105;BME280;10212;42.714;23.310;2023-01-29T08:24:46;95517.53;;;-1.23;100.00
20105;BME280;10212;42.714;23.310;2023-01-29T08:34:46;95518.72;;;-1.38;100.00
20105;BME280;10212;42.714;23.310;2023-01-29T08:44:47;95535.47;;;-1.46;100.00
20105;BME280;10212;42.714;23.310;2023-01-29T08:54:48;95543.38;;;-1.26;100.00
20105;BME280;10212;42.714;23.310;2023-01-29T09:04:48;95557.56;;;-1.33;99.70
20105;BME280;10212;42.714;23.310;2023-01-29T09:14:49;95545.91;;;-1.14;98.78
20105;BME280;10212;42.714;23.310;2023-01-29T09:24:49;95547.31;;;-1.10;98.78
20105;BME280;10212;42.714;23.310;2023-01-29T09:34:49;95536.97;;;-1.31;99.26
20105;BME280;10212;42.714;23.310;2023-01-29T10:05:25;95524.28;;;-1.22;98.76
20105;BME280;10212;42.714;23.310;2023-01-29T10:15:53;95513.41;;;-0.91;97.87
20105;BME280;10212;42.714;23.310;2023-01-29T10:25:58;95506.47;;;-1.12;98.62
20105;BME280;10212;42.714;23.310;2023-01-29T10:36:04;95503.34;;;-1.15;98.67
20105;BME280;10212;42.714;23.310;2023-01-29T10:46:24;95500.50;;;-1.01;98.86
20105;BME280;10212;42.714;23.310;2023-01-29T10:56:50;95488.63;;;-0.90;98.65
20105;BME280;10212;42.714;23.310;2023-01-29T11:06:55;95484.59;;;-0.71;97.01
20105;BME280;10212;42.714;23.310;2023-01-29T11:16:56;95474.91;;;-0.68;97.73
20105;BME280;10212;42.714;23.310;2023-01-29T11:26:58;95460.84;;;-0.74;97.60
20105;BME280;10212;42.714;23.310;2023-01-29T11:37:04;95449.63;;;-0.61;96.78
20105;BME280;10212;42.714;23.310;2023-01-29T11:57:29;95432.28;;;-0.26;94.58
20105;BME280;10212;42.714;23.310;2023-01-29T12:07:31;95433.81;;;0.08;92.44
20105;BME280;10212;42.714;23.310;2023-01-29T12:17:36;95421.28;;;-0.17;92.08
20105;BME280;10212;42.714;23.310;2023-01-29T12:27:47;95418.31;;;-0.43;93.39
20105;BME280;10212;42.714;23.310;2023-01-29T12:38:06;95428.13;;;-0.49;94.68
20105;BME280;10212;42.714;23.310;2023-01-29T12:48:13;95427.50;;;0.22;90.43
20105;BME280;10212;42.714;23.310;2023-01-29T12:58:26;95424.66;;;0.15;90.28
20105;BME280;10212;42.714;23.310;2023-01-29T13:08:34;95424.84;;;-0.08;91.08
20105;BME280;10212;42.714;23.310;2023-01-29T13:18:46;95426.97;;;-0.13;91.29
20105;BME280;10212;42.714;23.310;2023-01-29T13:28:50;95438.72;;;-0.10;92.36
20105;BME280;10212;42.714;23.310;2023-01-29T13:39:05;95445.66;;;-0.44;91.43
20105;BME280;10212;42.714;23.310;2023-01-29T13:49:26;95453.75;;;-0.49;91.99
20105;BME280;10212;42.714;23.310;2023-01-29T13:59:48;95449.28;;;-0.68;92.14
20105;BME280;10212;42.714;23.310;2023-01-29T14:10:01;95465.50;;;-0.67;91.91
20105;BME280;10212;42.714;23.310;2023-01-29T14:20:19;95469.38;;;-0.85;93.18
20105;BME280;10212;42.714;23.310;2023-01-29T14:30:23;95471.50;;;-0.90;94.49
20105;BME280;10212;42.714;23.310;2023-01-29T14:40:27;95488.16;;;-0.95;94.96
20105;BME280;10212;42.714;23.310;2023-01-29T15:00:36;95484.94;;;-1.09;97.29
20105;BME280;10212;42.714;23.310;2023-01-29T15:10:51;95482.81;;;-0.92;96.75
20105;BME280;10212;42.714;23.310;2023-01-29T15:21:15;95488.84;;;-0.93;97.19
20105;BME280;10212;42.714;23.310;2023-01-29T15:31:17;95496.34;;;-1.13;96.74
20105;BME280;10212;42.714;23.310;2023-01-29T15:41:19;95497.03;;;-1.11;96.94
20105;BME280;10212;42.714;23.310;2023-01-29T15:51:26;95500.09;;;-1.17;96.19
20105;BME280;10212;42.714;23.310;2023-01-29T16:01:28;95505.19;;;-1.17;95.91
20105;BME280;10212;42.714;23.310;2023-01-29T16:11:29;95518.25;;;-1.32;96.67
20105;BME280;10212;42.714;23.310;2023-01-29T16:21:38;95519.06;;;-1.31;96.33
20105;BME280;10212;42.714;23.310;2023-01-29T16:31:42;95531.84;;;-1.43;96.59
20105;BME280;10212;42.714;23.310;2023-01-29T16:41:43;95531.06;;;-1.43;97.22
20105;BME280;10212;42.714;23.310;2023-01-29T16:51:44;95537.44;;;-1.49;97.91
20105;BME280;10212;42.714;23.310;2023-01-29T17:01:45;95531.88;;;-1.54;98.61
20105;BME280;10212;42.714;23.310;2023-01-29T17:11:46;95525.94;;;-1.43;97.74
20105;BME280;10212;42.714;23.310;2023-01-29T17:21:49;95531.50;;;-1.50;98.23
20105;BME280;10212;42.714;23.310;2023-01-29T17:31:50;95530.34;;;-1.46;98.12
20105;BME280;10212;42.714;23.310;2023-01-29T17:41:52;95535.25;;;-1.54;98.83
20105;BME280;10212;42.714;23.310;2023-01-29T17:51:54;95541.97;;;-1.53;99.56
20105;BME280;10212;42.714;23.310;2023-01-29T18:01:55;95535.94;;;-1.63;100.00
20105;BME280;10212;42.714;23.310;2023-01-29T18:11:55;95527.00;;;-1.58;99.66
20105;BME280;10212;42.714;23.310;2023-01-29T18:21:57;95530.69;;;-1.50;99.74
20105;BME280;10212;42.714;23.310;2023-01-29T18:31:57;95528.97;;;-1.61;99.85
20105;BME280;10212;42.714;23.310;2023-01-29T18:41:58;95529.75;;;-1.61;99.89
20105;BME280;10212;42.714;23.310;2023-01-29T18:51:58;95528.72;;;-1.58;100.00
20105;BME280;10212;42.714;23.310;2023-01-29T19:01:59;95526.88;;;-1.56;100.00
20105;BME280;10212;42.714;23.310;2023-01-29T19:12:00;95514.09;;;-1.56;100.00
20105;BME280;10212;42.714;23.310;2023-01-29T19:22:00;95524.53;;;-1.48;99.29
20105;BME280;10212;42.714;23.310;2023-01-29T19:32:01;95518.94;;;-1.64;99.51
20105;BME280;10212;42.714;23.310;2023-01-29T19:42:02;95518.72;;;-1.84;100.00
20105;BME280;10212;42.714;23.310;2023-01-29T19:52:03;95536.63;;;-1.73;100.00
20105;BME280;10212;42.714;23.310;2023-01-29T20:02:05;95522.34;;;-1.75;100.00
20105;BME280;10212;42.714;23.310;2023-01-29T20:12:05;95529.75;;;-1.84;99.99
20105;BME280;10212;42.714;23.310;2023-01-29T20:22:06;95522.78;;;-1.82;100.00
20105;BME280;10212;42.714;23.310;2023-01-29T20:32:06;95528.72;;;-1.58;99.08
20105;BME280;10212;42.714;23.310;2023-01-29T20:42:07;95520.69;;;-1.53;98.87
20105;BME280;10212;42.714;23.310;2023-01-29T20:52:09;95527.06;;;-1.59;98.39
20105;BME280;10212;42.714;23.310;2023-01-29T21:02:10;95534.19;;;-1.63;97.43
20105;BME280;10212;42.714;23.310;2023-01-29T21:12:10;95531.25;;;-1.70;97.83
20105;BME280;10212;42.714;23.310;2023-01-29T21:22:11;95548.25;;;-1.57;98.54
20105;BME280;10212;42.714;23.310;2023-01-29T21:32:12;95539.66;;;-1.56;99.15
20105;BME280;10212;42.714;23.310;2023-01-29T21:42:12;95540.56;;;-1.57;97.99
20105;BME280;10212;42.714;23.310;2023-01-29T21:52:31;95521.41;;;-1.63;97.47
20105;BME280;10212;42.714;23.310;2023-01-29T22:02:32;95522.44;;;-1.65;96.25
20105;BME280;10212;42.714;23.310;2023-01-29T22:12:32;95510.94;;;-1.60;95.46
20105;BME280;10212;42.714;23.310;2023-01-29T22:22:33;95507.56;;;-1.72;94.30
20105;BME280;10212;42.714;23.310;2023-01-29T22:32:33;95502.22;;;-1.91;96.08
20105;BME280;10212;42.714;23.310;2023-01-29T22:42:34;95482.56;;;-1.91;96.98
20105;BME280;10212;42.714;23.310;2023-01-29T22:52:34;95485.69;;;-1.87;96.20
20105;BME280;10212;42.714;23.310;2023-01-29T23:02:37;95479.19;;;-1.91;97.05
20105;BME280;10212;42.714;23.310;2023-01-29T23:12:37;95478.03;;;-1.87;97.37
20105;BME280;10212;42.714;23.310;2023-01-29T23:22:38;95472.34;;;-1.79;92.69
20105;BME280;10212;42.714;23.310;2023-01-29T23:32:38;95468.63;;;-1.87;89.43
20105;BME280;10212;42.714;23.310;2023-01-29T23:42:39;95471.66;;;-1.93;87.88
20105;BME280;10212;42.714;23.310;2023-01-29T23:52:39;95460.50;;;-1.92;87.83
